Logo AVAMET
Benvolgut visitant, si us plau, ingressa Recuperar contrasenya

Inforatge el Puig de Santa Maria

Dades diàries. Acumulats / Últims 30 dies disponibles

Data Temperatura (°C) Humitat rel. (%) Pressió rel. (hPa) Vent (km/h) Precipitació
Mínima Mitjana Màxima Amplitud
tèrmica
Mínima Mitjana Màxima Mínima Mitjana Màxima Predom. Mitjana Ràfega
màxima
Total
(mm)
Índex-n
Mínima Mitjana Màxima Mínima Mitjana Màxima n
0 a 1
P0 max
mm 5'
Dades mensuals acumulades fins l'últim dia disponible
01/2020 1,6 4,9 7,2 9,8 12,6 15,6 21,8 20,2 39 75 96 1.016 1.028 1.034   4,1 75,6 24,4
Dades anuals acumulades fins l'últim dia disponible
2020 1,6 4,9 7,2 9,8 12,6 15,6 21,8 20,2 39 75 96 1.016 1.028 1.034   4,1 75,6 24,4
Últims 30 dies disponibles
19-01-2020 6,0     9,1     12,7 6,7 60 83 96 1.016 1.018 1.022 NE 13,8 75,6 24,0
18-01-2020 7,1     12,0     17,8 10,7 48 64 76 1.019 1.027 1.032 W 4,7 33,8 0,0
17-01-2020 6,7     13,0     18,3 11,6 41 58 87 1.027 1.028 1.032 WNW 8,7 43,5 0,0
16-01-2020 6,7     11,2     17,4 10,7 51 74 86 1.026 1.028 1.029 NW 2,3 12,9 0,0
15-01-2020 2,4     8,8     16,1 13,7 53 73 87 1.023 1.025 1.027 WNW 3,1 17,7 0,0
14-01-2020 2,8     8,2     13,4 10,6 39 65 82 1.021 1.022 1.024 WNW 2,7 16,1 0,0
13-01-2020 1,6     7,9     15,0 13,4 40 68 87 1.022 1.025 1.030 WNW 4,7 20,9 0,0
12-01-2020 2,5     8,2     14,2 11,7 52 79 92 1.029 1.030 1.032 WNW 2,1 12,9 0,0
11-01-2020 5,6     10,0     15,4 9,8 42 64 86 1.028 1.030 1.032 WNW 3,9 17,7 0,0
10-01-2020 6,7     10,9     21,8 15,1 41 74 92 1.023 1.026 1.030 WNW 5,0 48,3 0,4
09-01-2020 4,9     10,1     15,0 10,1 62 82 92 1.024 1.028 1.031 NW 3,1 16,1 0,0
08-01-2020 5,2     9,7     15,6 10,4 56 80 89 1.028 1.030 1.032 WNW 3,1 22,5 0,0
07-01-2020 4,3     9,2     14,8 10,5 52 81 90 1.029 1.031 1.033 WNW 2,9 16,1 0,0
06-01-2020 5,6     10,0     14,3 8,7 65 78 87 1.028 1.030 1.031 NW 3,7 19,3 0,0
05-01-2020 3,9     9,7     17,5 13,6 40 74 86 1.027 1.029 1.032 WNW 4,0 25,7 0,0
04-01-2020 4,3     9,4     15,9 11,6 53 77 92 1.031 1.033 1.034 WNW 3,5 14,5 0,0
03-01-2020 4,4     8,7     12,6 8,2 77 86 91 1.030 1.031 1.034 NW 2,4 16,1 0,0
02-01-2020 7,2     10,2     14,0 6,8 70 83 90 1.030 1.032 1.034 NW 2,7 14,5 0,0
01-01-2020 5,1     9,7     14,4 9,3 73 86 92 1.031 1.032 1.034 WNW 1,9 12,9 0,0
31-12-2019 5,6     9,1     14,9 9,3 65 85 91 1.032 1.033 1.035 O 2,1 11,3 0,0
30-12-2019 7,4     10,9     14,6 7,2 64 79 87 1.032 1.033 1.035 NW 2,7 12,9 0,0
29-12-2019 8,6     10,9     14,5 5,9 59 80 89 1.031 1.032 1.034 NW 4,0 17,7 0,0
28-12-2019 4,4     9,6     14,6 10,2 63 83 93 1.029 1.031 1.033 NW 2,3 14,5 0,0
27-12-2019 8,3     11,9     17,0 8,7 53 77 87 1.028 1.029 1.031 WNW 3,7 14,5 0,0
26-12-2019 9,9     13,8     20,9 11,0 41 68 84 1.022 1.025 1.030 WNW 2,3 16,1 0,0
25-12-2019 9,6     13,5     19,4 9,8 55 73 86 1.023 1.024 1.026 WNW 1,8 11,3 0,0
24-12-2019 9,3     15,6     24,2 14,9 41 64 79 1.025 1.026 1.028 WNW 4,5 25,7 0,0
23-12-2019 11,1     15,8     20,9 9,8 37 55 71 1.018 1.024 1.027 WNW 6,6 29,0 0,0
22-12-2019 16,4     18,5     20,8 4,4 42 50 56 1.007 1.013 1.018 WNW 17,9 70,8 0,0
21-12-2019 16,6     20,8     24,6 8,0 40 60 79 998 1.002 1.007 WNW 20,8 72,4 0,0
Últims 13 mesos disponibles
12/2019 4,4 9,7 16,6 13,5 13,0 17,9 24,6 20,2 50 70 92 1.001 1.019 1.033 WNW 7,5 77,2 67,2
11/2019 4,7 11,2 20,3 15,4 15,4 19,8 28,6 23,9 40 55 81 998 1.010 1.018 WNW 9,1 57,9 2,0
10/2019 10,7 15,6 20,7 19,9 17,0 24,3 28,2 17,5 47 70 85 1.007 1.017 1.022 WNW 5,2 40,2 24,8
09/2019 15,4 19,9 23,1 23,4 20,9 26,8 34,6 19,2 48 73 83 1.010 1.018 1.025 SSE 6,6 56,3 67,2
08/2019 18,1 22,2 26,3 25,9 26,4 29,4 41,3 23,2 47 72 82 1.011 1.016 1.021 S 6,4 46,7 7,2
07/2019 20,4 22,4 24,3 26,1 27,1 29,3 36,2 15,8 51 69 81 1.005 1.014 1.021 S 6,5 43,5 14,4
06/2019 12,9 18,0 22,3 21,9 20,1 25,3 32,8 19,9 48 67 83 1.008 1.016 1.022 E 6,8 56,3 0,0
05/2019 8,8 14,1 18,2 17,9 17,2 21,4 29,7 20,9 46 69 85 1.005 1.015 1.025 SSE 6,7 55,6 23,4
04/2019 7,9 11,1 14,2 15,0 15,4 19,2 27,3 19,4 44 66 93 999 1.013 1.025 O 8,4 64,8 40,8
03/2019 5,3 8,7 13,7 14,1 12,6 18,6 28,5 23,2 44 60 84 1.015 1.023 1.030 SSO 5,5 56,3 16,0
02/2019 2,0 6,5 10,9 11,7 13,3 17,0 23,1 21,1 32 66 80 994 1.025 1.035 SSO 5,5 69,3 0,0
01/2019 2,9 6,5 11,1 11,9 13,1 16,7 20,7 17,8 41 57 78 1.001 1.013 1.022 O 6,5 74,1 0,0
Tots els anys disponibles
2019 2,0 14,1 26,3 18,3 12,6 22,3 41,3 39,3 32 67 93 994 1.017 1.035 WNW 6,7 77,2 263,0
Temperatura (°C)
Humitat relativa (%)
Velocitat del vent i ràfega màxima (km/h)
Direcció del vent (°)
Pressió (hPa)
Precipitació (mm)
Nota sobre les dades: s'avisa a l'usuari de la provisionalitat i no oficialitat d'aquestes dades
Logo AVAMET blanc
Web allotjada a Sollutia
Llicència de Creative CommonsLa web d'AVAMET i els seus continguts estan subjectes a una llicència de
Reconeixement - No Comercial - Compartir igual
Últimes estacions: Xixona - Els Ameradors (Soci), Agres - El Tossal (Soci), Xàbia - Bevenguts (MeteoXàbia), Llíria (Aj. Soci/Inforatge), Orihuela - Lo Capitán, Cox & Guardamar del Segura - horta (Meteorihuela), l'Alcúdia - Carriona & el Real de Gandia (Inforatge), Benicàssim - les Vil·les (Soci),  l'Alfàs del Pi - l'Albir (Soci), - - -